sensor_id;sensor_type;location;lat;lon;timestamp;P1;durP1;ratioP1;P2;durP2;ratioP2
13421;SDS011;6782;55.904;13.396;2023-04-24T00:00:54;15.90;;;14.40;;
13421;SDS011;6782;55.904;13.396;2023-04-24T00:07:02;16.50;;;14.87;;
13421;SDS011;6782;55.904;13.396;2023-04-24T00:09:29;17.83;;;16.03;;
13421;SDS011;6782;55.904;13.396;2023-04-24T00:11:56;16.23;;;14.63;;
13421;SDS011;6782;55.904;13.396;2023-04-24T00:23:04;16.83;;;15.17;;
13421;SDS011;6782;55.904;13.396;2023-04-24T00:25:31;16.43;;;14.93;;
13421;SDS011;6782;55.904;13.396;2023-04-24T00:27:58;15.83;;;14.27;;
13421;SDS011;6782;55.904;13.396;2023-04-24T00:30:25;16.27;;;14.57;;
13421;SDS011;6782;55.904;13.396;2023-04-24T00:32:52;16.77;;;15.07;;
13421;SDS011;6782;55.904;13.396;2023-04-24T00:37:51;17.47;;;15.60;;
13421;SDS011;6782;55.904;13.396;2023-04-24T00:40:32;17.53;;;15.77;;
13421;SDS011;6782;55.904;13.396;2023-04-24T00:43:00;17.63;;;16.00;;
13421;SDS011;6782;55.904;13.396;2023-04-24T00:45:27;15.30;;;13.80;;
13421;SDS011;6782;55.904;13.396;2023-04-24T00:54:45;19.97;;;17.50;;
13421;SDS011;6782;55.904;13.396;2023-04-24T00:57:14;15.73;;;14.13;;
13421;SDS011;6782;55.904;13.396;2023-04-24T00:59:41;19.30;;;17.27;;
13421;SDS011;6782;55.904;13.396;2023-04-24T01:02:09;18.23;;;16.10;;
13421;SDS011;6782;55.904;13.396;2023-04-24T01:04:38;18.67;;;15.60;;
13421;SDS011;6782;55.904;13.396;2023-04-24T01:10:14;22.50;;;18.97;;
13421;SDS011;6782;55.904;13.396;2023-04-24T01:12:44;26.17;;;19.97;;
13421;SDS011;6782;55.904;13.396;2023-04-24T01:15:12;57.00;;;22.20;;
13421;SDS011;6782;55.904;13.396;2023-04-24T01:17:39;21.27;;;18.73;;
13421;SDS011;6782;55.904;13.396;2023-04-24T01:20:06;69.33;;;19.37;;
13421;SDS011;6782;55.904;13.396;2023-04-24T01:25:08;26.90;;;19.80;;
13421;SDS011;6782;55.904;13.396;2023-04-24T01:27:35;31.27;;;19.17;;
13421;SDS011;6782;55.904;13.396;2023-04-24T01:30:14;25.07;;;18.77;;
13421;SDS011;6782;55.904;13.396;2023-04-24T01:32:41;25.23;;;19.70;;
13421;SDS011;6782;55.904;13.396;2023-04-24T01:35:10;20.10;;;18.07;;
13421;SDS011;6782;55.904;13.396;2023-04-24T01:37:37;20.97;;;18.73;;
13421;SDS011;6782;55.904;13.396;2023-04-24T01:40:05;20.67;;;18.20;;
13421;SDS011;6782;55.904;13.396;2023-04-24T01:42:37;20.13;;;17.93;;
13421;SDS011;6782;55.904;13.396;2023-04-24T01:45:07;18.90;;;17.07;;
13421;SDS011;6782;55.904;13.396;2023-04-24T01:47:37;17.57;;;15.77;;
13421;SDS011;6782;55.904;13.396;2023-04-24T01:50:05;19.20;;;17.30;;
13421;SDS011;6782;55.904;13.396;2023-04-24T01:52:33;16.47;;;14.87;;
13421;SDS011;6782;55.904;13.396;2023-04-24T01:55:01;17.43;;;15.73;;
13421;SDS011;6782;55.904;13.396;2023-04-24T01:57:29;18.63;;;16.63;;
13421;SDS011;6782;55.904;13.396;2023-04-24T01:59:58;18.20;;;16.27;;
13421;SDS011;6782;55.904;13.396;2023-04-24T02:02:25;16.30;;;14.80;;
13421;SDS011;6782;55.904;13.396;2023-04-24T02:07:19;16.83;;;15.23;;
13421;SDS011;6782;55.904;13.396;2023-04-24T02:09:58;17.13;;;15.53;;
13421;SDS011;6782;55.904;13.396;2023-04-24T02:12:25;28.13;;;16.43;;
13421;SDS011;6782;55.904;13.396;2023-04-24T02:14:52;19.60;;;17.60;;
13421;SDS011;6782;55.904;13.396;2023-04-24T02:17:21;18.30;;;16.53;;
13421;SDS011;6782;55.904;13.396;2023-04-24T02:19:48;20.20;;;18.30;;
13421;SDS011;6782;55.904;13.396;2023-04-24T02:22:15;20.70;;;18.50;;
13421;SDS011;6782;55.904;13.396;2023-04-24T02:24:42;20.07;;;17.97;;
13421;SDS011;6782;55.904;13.396;2023-04-24T02:27:09;21.33;;;19.13;;
13421;SDS011;6782;55.904;13.396;2023-04-24T02:29:37;20.83;;;18.67;;
13421;SDS011;6782;55.904;13.396;2023-04-24T02:32:04;23.80;;;21.30;;
13421;SDS011;6782;55.904;13.396;2023-04-24T02:34:33;22.53;;;20.13;;
13421;SDS011;6782;55.904;13.396;2023-04-24T02:40:36;19.60;;;17.63;;
13421;SDS011;6782;55.904;13.396;2023-04-24T02:43:03;20.00;;;17.90;;
13421;SDS011;6782;55.904;13.396;2023-04-24T04:22:56;25.37;;;22.77;;
13421;SDS011;6782;55.904;13.396;2023-04-24T04:25:43;26.40;;;23.47;;
13421;SDS011;6782;55.904;13.396;2023-04-24T04:28:10;25.03;;;22.40;;
13421;SDS011;6782;55.904;13.396;2023-04-24T04:30:37;25.90;;;22.53;;
13421;SDS011;6782;55.904;13.396;2023-04-24T04:33:06;25.93;;;23.03;;
13421;SDS011;6782;55.904;13.396;2023-04-24T04:35:34;27.33;;;24.23;;
13421;SDS011;6782;55.904;13.396;2023-04-24T04:38:03;28.50;;;23.77;;
13421;SDS011;6782;55.904;13.396;2023-04-24T04:40:33;28.37;;;23.33;;
13421;SDS011;6782;55.904;13.396;2023-04-24T04:43:01;32.00;;;25.63;;
13421;SDS011;6782;55.904;13.396;2023-04-24T04:45:29;36.00;;;26.33;;
13421;SDS011;6782;55.904;13.396;2023-04-24T04:47:56;36.77;;;26.13;;
13421;SDS011;6782;55.904;13.396;2023-04-24T04:50:24;37.97;;;29.20;;
13421;SDS011;6782;55.904;13.396;2023-04-24T04:52:52;34.47;;;28.23;;
13421;SDS011;6782;55.904;13.396;2023-04-24T04:55:21;35.70;;;29.27;;
13421;SDS011;6782;55.904;13.396;2023-04-24T04:57:49;34.67;;;28.37;;
13421;SDS011;6782;55.904;13.396;2023-04-24T05:00:25;32.57;;;28.50;;
13421;SDS011;6782;55.904;13.396;2023-04-24T05:02:52;34.93;;;29.20;;
13421;SDS011;6782;55.904;13.396;2023-04-24T05:05:20;35.77;;;29.37;;
13421;SDS011;6782;55.904;13.396;2023-04-24T05:07:47;33.67;;;27.67;;
13421;SDS011;6782;55.904;13.396;2023-04-24T05:10:16;34.73;;;29.30;;
13421;SDS011;6782;55.904;13.396;2023-04-24T05:12:44;31.63;;;28.20;;
13421;SDS011;6782;55.904;13.396;2023-04-24T05:15:12;32.47;;;28.00;;
13421;SDS011;6782;55.904;13.396;2023-04-24T05:17:39;31.63;;;27.73;;
13421;SDS011;6782;55.904;13.396;2023-04-24T05:20:07;33.83;;;27.87;;
13421;SDS011;6782;55.904;13.396;2023-04-24T05:22:35;30.63;;;26.57;;
13421;SDS011;6782;55.904;13.396;2023-04-24T05:25:02;30.47;;;26.93;;
13421;SDS011;6782;55.904;13.396;2023-04-24T05:27:31;28.93;;;25.83;;
13421;SDS011;6782;55.904;13.396;2023-04-24T05:30:00;29.23;;;25.70;;
13421;SDS011;6782;55.904;13.396;2023-04-24T05:32:28;29.50;;;25.43;;
13421;SDS011;6782;55.904;13.396;2023-04-24T05:34:55;27.83;;;24.70;;
13421;SDS011;6782;55.904;13.396;2023-04-24T05:37:23;27.10;;;24.20;;
13421;SDS011;6782;55.904;13.396;2023-04-24T05:40:09;25.20;;;22.60;;
13421;SDS011;6782;55.904;13.396;2023-04-24T05:42:57;23.73;;;21.43;;
13421;SDS011;6782;55.904;13.396;2023-04-24T05:45:46;23.13;;;20.80;;
13421;SDS011;6782;55.904;13.396;2023-04-24T05:48:33;22.90;;;20.60;;
13421;SDS011;6782;55.904;13.396;2023-04-24T05:51:20;20.27;;;18.23;;
13421;SDS011;6782;55.904;13.396;2023-04-24T05:54:08;18.67;;;16.90;;
13421;SDS011;6782;55.904;13.396;2023-04-24T05:56:57;17.03;;;15.40;;
13421;SDS011;6782;55.904;13.396;2023-04-24T05:59:44;14.33;;;13.03;;
13421;SDS011;6782;55.904;13.396;2023-04-24T06:02:33;13.60;;;12.23;;
13421;SDS011;6782;55.904;13.396;2023-04-24T06:05:20;10.77;;;9.87;;
13421;SDS011;6782;55.904;13.396;2023-04-24T06:08:07;10.47;;;9.53;;
13421;SDS011;6782;55.904;13.396;2023-04-24T06:10:55;9.03;;;8.23;;
13421;SDS011;6782;55.904;13.396;2023-04-24T06:13:42;9.30;;;8.50;;
13421;SDS011;6782;55.904;13.396;2023-04-24T06:16:29;9.20;;;8.20;;
13421;SDS011;6782;55.904;13.396;2023-04-24T06:19:18;8.50;;;7.60;;
13421;SDS011;6782;55.904;13.396;2023-04-24T06:22:06;8.03;;;7.33;;
13421;SDS011;6782;55.904;13.396;2023-04-24T06:24:53;7.93;;;7.33;;
13421;SDS011;6782;55.904;13.396;2023-04-24T06:27:40;7.60;;;7.00;;
13421;SDS011;6782;55.904;13.396;2023-04-24T06:30:28;8.37;;;7.63;;
13421;SDS011;6782;55.904;13.396;2023-04-24T06:33:15;8.53;;;7.70;;
13421;SDS011;6782;55.904;13.396;2023-04-24T06:36:04;8.20;;;7.50;;
13421;SDS011;6782;55.904;13.396;2023-04-24T06:38:52;8.33;;;7.63;;
13421;SDS011;6782;55.904;13.396;2023-04-24T06:41:40;8.90;;;8.10;;
13421;SDS011;6782;55.904;13.396;2023-04-24T06:44:27;8.93;;;8.13;;
13421;SDS011;6782;55.904;13.396;2023-04-24T06:47:14;8.53;;;7.73;;
13421;SDS011;6782;55.904;13.396;2023-04-24T06:50:02;8.60;;;7.80;;
13421;SDS011;6782;55.904;13.396;2023-04-24T06:52:51;8.60;;;7.90;;
13421;SDS011;6782;55.904;13.396;2023-04-24T06:55:38;8.00;;;7.27;;
13421;SDS011;6782;55.904;13.396;2023-04-24T06:58:25;8.93;;;7.47;;
13421;SDS011;6782;55.904;13.396;2023-04-24T07:01:13;8.57;;;7.77;;
13421;SDS011;6782;55.904;13.396;2023-04-24T07:04:00;7.57;;;6.83;;
13421;SDS011;6782;55.904;13.396;2023-04-24T07:06:48;8.13;;;7.30;;
13421;SDS011;6782;55.904;13.396;2023-04-24T07:09:38;7.60;;;6.90;;
13421;SDS011;6782;55.904;13.396;2023-04-24T07:12:27;8.10;;;7.30;;
13421;SDS011;6782;55.904;13.396;2023-04-24T07:15:15;7.70;;;7.10;;
13421;SDS011;6782;55.904;13.396;2023-04-24T07:18:03;7.47;;;6.77;;
13421;SDS011;6782;55.904;13.396;2023-04-24T07:20:50;7.83;;;7.13;;
13421;SDS011;6782;55.904;13.396;2023-04-24T07:23:37;8.17;;;7.37;;
13421;SDS011;6782;55.904;13.396;2023-04-24T07:26:29;7.73;;;7.03;;
13421;SDS011;6782;55.904;13.396;2023-04-24T07:29:17;7.57;;;6.97;;
13421;SDS011;6782;55.904;13.396;2023-04-24T07:32:05;8.32;;;7.63;;
13421;SDS011;6782;55.904;13.396;2023-04-24T07:34:53;8.60;;;7.80;;
13421;SDS011;6782;55.904;13.396;2023-04-24T07:37:40;8.75;;;8.05;;
13421;SDS011;6782;55.904;13.396;2023-04-24T07:40:31;9.23;;;8.43;;
13421;SDS011;6782;55.904;13.396;2023-04-24T07:43:20;9.32;;;8.43;;
13421;SDS011;6782;55.904;13.396;2023-04-24T07:46:09;9.70;;;8.90;;
13421;SDS011;6782;55.904;13.396;2023-04-24T07:48:56;10.93;;;9.93;;
13421;SDS011;6782;55.904;13.396;2023-04-24T07:51:44;10.30;;;9.20;;
13421;SDS011;6782;55.904;13.396;2023-04-24T07:54:31;10.23;;;9.33;;
13421;SDS011;6782;55.904;13.396;2023-04-24T07:57:19;10.77;;;9.68;;
13421;SDS011;6782;55.904;13.396;2023-04-24T08:00:08;10.98;;;9.98;;
13421;SDS011;6782;55.904;13.396;2023-04-24T08:02:57;10.38;;;9.38;;
13421;SDS011;6782;55.904;13.396;2023-04-24T08:05:44;10.68;;;9.77;;
13421;SDS011;6782;55.904;13.396;2023-04-24T08:08:31;10.55;;;9.55;;
13421;SDS011;6782;55.904;13.396;2023-04-24T08:11:18;10.73;;;9.80;;
13421;SDS011;6782;55.904;13.396;2023-04-24T08:14:05;9.32;;;8.55;;
13421;SDS011;6782;55.904;13.396;2023-04-24T08:16:54;8.85;;;8.05;;
13421;SDS011;6782;55.904;13.396;2023-04-24T08:19:44;8.93;;;8.03;;
13421;SDS011;6782;55.904;13.396;2023-04-24T08:22:33;8.02;;;7.32;;
13421;SDS011;6782;55.904;13.396;2023-04-24T08:25:20;7.33;;;6.63;;
13421;SDS011;6782;55.904;13.396;2023-04-24T08:28:08;7.55;;;6.95;;
13421;SDS011;6782;55.904;13.396;2023-04-24T08:30:56;7.80;;;7.10;;
13421;SDS011;6782;55.904;13.396;2023-04-24T08:33:45;7.28;;;6.68;;
13421;SDS011;6782;55.904;13.396;2023-04-24T08:36:33;7.82;;;7.13;;
13421;SDS011;6782;55.904;13.396;2023-04-24T08:39:20;7.60;;;6.90;;
13421;SDS011;6782;55.904;13.396;2023-04-24T08:42:08;7.18;;;6.57;;
13421;SDS011;6782;55.904;13.396;2023-04-24T08:44:56;7.75;;;7.15;;
13421;SDS011;6782;55.904;13.396;2023-04-24T08:47:43;7.90;;;7.13;;
13421;SDS011;6782;55.904;13.396;2023-04-24T08:50:33;7.70;;;7.10;;
13421;SDS011;6782;55.904;13.396;2023-04-24T08:53:21;8.30;;;7.50;;
13421;SDS011;6782;55.904;13.396;2023-04-24T08:56:10;8.57;;;7.72;;
13421;SDS011;6782;55.904;13.396;2023-04-24T08:58:58;8.95;;;8.05;;
13421;SDS011;6782;55.904;13.396;2023-04-24T09:01:46;9.02;;;8.23;;
13421;SDS011;6782;55.904;13.396;2023-04-24T09:04:35;9.10;;;8.25;;
13421;SDS011;6782;55.904;13.396;2023-04-24T09:07:25;9.63;;;8.73;;
13421;SDS011;6782;55.904;13.396;2023-04-24T09:10:16;9.67;;;8.77;;
13421;SDS011;6782;55.904;13.396;2023-04-24T09:13:03;10.47;;;9.47;;
13421;SDS011;6782;55.904;13.396;2023-04-24T09:15:51;9.90;;;9.10;;
13421;SDS011;6782;55.904;13.396;2023-04-24T09:18:39;10.27;;;9.37;;
13421;SDS011;6782;55.904;13.396;2023-04-24T09:21:30;10.70;;;9.80;;
13421;SDS011;6782;55.904;13.396;2023-04-24T09:24:21;11.82;;;10.73;;
13421;SDS011;6782;55.904;13.396;2023-04-24T09:27:10;12.35;;;10.88;;
13421;SDS011;6782;55.904;13.396;2023-04-24T09:29:58;12.85;;;11.65;;
13421;SDS011;6782;55.904;13.396;2023-04-24T09:32:46;12.47;;;11.30;;
13421;SDS011;6782;55.904;13.396;2023-04-24T09:35:33;12.10;;;11.05;;
13421;SDS011;6782;55.904;13.396;2023-04-24T09:38:20;11.87;;;10.83;;
13421;SDS011;6782;55.904;13.396;2023-04-24T09:41:19;11.85;;;10.77;;
13421;SDS011;6782;55.904;13.396;2023-04-24T09:44:11;12.27;;;11.07;;
13421;SDS011;6782;55.904;13.396;2023-04-24T09:46:59;10.45;;;9.57;;
13421;SDS011;6782;55.904;13.396;2023-04-24T09:49:47;10.68;;;9.77;;
13421;SDS011;6782;55.904;13.396;2023-04-24T09:52:34;11.00;;;10.05;;
13421;SDS011;6782;55.904;13.396;2023-04-24T09:55:21;10.32;;;9.43;;
13421;SDS011;6782;55.904;13.396;2023-04-24T09:58:10;10.15;;;9.25;;
13421;SDS011;6782;55.904;13.396;2023-04-24T10:00:58;9.45;;;8.65;;
13421;SDS011;6782;55.904;13.396;2023-04-24T10:03:45;9.48;;;8.73;;
13421;SDS011;6782;55.904;13.396;2023-04-24T10:06:33;9.90;;;9.05;;
13421;SDS011;6782;55.904;13.396;2023-04-24T10:09:22;9.73;;;8.85;;
13421;SDS011;6782;55.904;13.396;2023-04-24T10:12:10;9.40;;;8.50;;
13421;SDS011;6782;55.904;13.396;2023-04-24T10:14:59;9.05;;;8.25;;
13421;SDS011;6782;55.904;13.396;2023-04-24T10:17:47;9.43;;;8.55;;
13421;SDS011;6782;55.904;13.396;2023-04-24T10:20:40;8.93;;;7.80;;
13421;SDS011;6782;55.904;13.396;2023-04-24T10:23:27;8.63;;;7.93;;
13421;SDS011;6782;55.904;13.396;2023-04-24T10:26:16;8.48;;;7.75;;
13421;SDS011;6782;55.904;13.396;2023-04-24T10:29:05;7.53;;;6.65;;
13421;SDS011;6782;55.904;13.396;2023-04-24T10:31:57;6.75;;;6.22;;
13421;SDS011;6782;55.904;13.396;2023-04-24T10:34:44;6.57;;;5.97;;
13421;SDS011;6782;55.904;13.396;2023-04-24T10:37:33;6.95;;;6.32;;
13421;SDS011;6782;55.904;13.396;2023-04-24T10:40:25;5.57;;;5.07;;
13421;SDS011;6782;55.904;13.396;2023-04-24T10:43:14;5.75;;;5.28;;
13421;SDS011;6782;55.904;13.396;2023-04-24T10:46:04;6.28;;;5.68;;
13421;SDS011;6782;55.904;13.396;2023-04-24T10:48:54;6.75;;;6.15;;
13421;SDS011;6782;55.904;13.396;2023-04-24T10:51:45;6.25;;;5.70;;
13421;SDS011;6782;55.904;13.396;2023-04-24T10:54:34;6.18;;;5.50;;
13421;SDS011;6782;55.904;13.396;2023-04-24T10:57:26;5.93;;;5.35;;
13421;SDS011;6782;55.904;13.396;2023-04-24T11:00:18;6.13;;;5.63;;
13421;SDS011;6782;55.904;13.396;2023-04-24T11:03:12;6.65;;;6.05;;
13421;SDS011;6782;55.904;13.396;2023-04-24T11:06:12;6.75;;;6.15;;
13421;SDS011;6782;55.904;13.396;2023-04-24T11:09:03;6.45;;;5.85;;
13421;SDS011;6782;55.904;13.396;2023-04-24T11:11:53;5.63;;;5.22;;
13421;SDS011;6782;55.904;13.396;2023-04-24T11:15:01;6.30;;;5.70;;
13421;SDS011;6782;55.904;13.396;2023-04-24T11:17:49;6.47;;;5.97;;
13421;SDS011;6782;55.904;13.396;2023-04-24T11:20:38;6.97;;;6.38;;
13421;SDS011;6782;55.904;13.396;2023-04-24T11:23:31;6.68;;;6.07;;
13421;SDS011;6782;55.904;13.396;2023-04-24T11:26:22;6.97;;;6.28;;
13421;SDS011;6782;55.904;13.396;2023-04-24T11:29:15;6.57;;;6.07;;
13421;SDS011;6782;55.904;13.396;2023-04-24T11:32:14;6.50;;;5.90;;
13421;SDS011;6782;55.904;13.396;2023-04-24T11:35:20;7.18;;;6.57;;
13421;SDS011;6782;55.904;13.396;2023-04-24T11:38:10;6.45;;;5.85;;
13421;SDS011;6782;55.904;13.396;2023-04-24T11:40:59;6.65;;;6.15;;
13421;SDS011;6782;55.904;13.396;2023-04-24T11:43:48;5.78;;;5.28;;
13421;SDS011;6782;55.904;13.396;2023-04-24T11:46:37;6.78;;;6.13;;
13421;SDS011;6782;55.904;13.396;2023-04-24T11:49:25;15.02;;;12.52;;
13421;SDS011;6782;55.904;13.396;2023-04-24T11:52:15;7.15;;;6.55;;
13421;SDS011;6782;55.904;13.396;2023-04-24T11:55:02;7.85;;;7.05;;
13421;SDS011;6782;55.904;13.396;2023-04-24T11:57:52;6.88;;;6.28;;
13421;SDS011;6782;55.904;13.396;2023-04-24T12:00:42;5.10;;;4.70;;
13421;SDS011;6782;55.904;13.396;2023-04-24T12:03:31;6.90;;;6.40;;
13421;SDS011;6782;55.904;13.396;2023-04-24T12:06:18;8.05;;;7.25;;
13421;SDS011;6782;55.904;13.396;2023-04-24T12:09:06;6.20;;;5.70;;
13421;SDS011;6782;55.904;13.396;2023-04-24T12:11:54;6.38;;;5.78;;
13421;SDS011;6782;55.904;13.396;2023-04-24T12:14:52;7.20;;;6.47;;
13421;SDS011;6782;55.904;13.396;2023-04-24T12:17:41;6.07;;;5.57;;
13421;SDS011;6782;55.904;13.396;2023-04-24T12:20:29;7.25;;;6.30;;
13421;SDS011;6782;55.904;13.396;2023-04-24T12:23:33;8.23;;;7.43;;
13421;SDS011;6782;55.904;13.396;2023-04-24T12:26:21;8.25;;;7.55;;
13421;SDS011;6782;55.904;13.396;2023-04-24T12:29:08;7.95;;;7.25;;
13421;SDS011;6782;55.904;13.396;2023-04-24T12:31:57;7.65;;;7.05;;
13421;SDS011;6782;55.904;13.396;2023-04-24T12:34:44;8.00;;;7.20;;
13421;SDS011;6782;55.904;13.396;2023-04-24T12:37:32;8.55;;;7.80;;
13421;SDS011;6782;55.904;13.396;2023-04-24T12:40:22;7.45;;;6.78;;
13421;SDS011;6782;55.904;13.396;2023-04-24T12:43:14;8.30;;;7.55;;
13421;SDS011;6782;55.904;13.396;2023-04-24T12:46:02;8.77;;;7.97;;
13421;SDS011;6782;55.904;13.396;2023-04-24T12:48:52;9.13;;;8.32;;
13421;SDS011;6782;55.904;13.396;2023-04-24T12:51:39;9.18;;;8.38;;
13421;SDS011;6782;55.904;13.396;2023-04-24T12:54:26;10.02;;;9.15;;
13421;SDS011;6782;55.904;13.396;2023-04-24T12:57:19;9.73;;;8.93;;
13421;SDS011;6782;55.904;13.396;2023-04-24T13:00:06;10.27;;;9.27;;
13421;SDS011;6782;55.904;13.396;2023-04-24T13:02:55;10.70;;;9.38;;
13421;SDS011;6782;55.904;13.396;2023-04-24T13:05:44;10.00;;;9.10;;
13421;SDS011;6782;55.904;13.396;2023-04-24T13:08:31;9.80;;;9.00;;
13421;SDS011;6782;55.904;13.396;2023-04-24T13:11:19;12.07;;;10.98;;
13421;SDS011;6782;55.904;13.396;2023-04-24T13:14:07;11.43;;;10.43;;
13421;SDS011;6782;55.904;13.396;2023-04-24T13:16:54;11.43;;;10.43;;
13421;SDS011;6782;55.904;13.396;2023-04-24T13:19:42;11.50;;;10.43;;
13421;SDS011;6782;55.904;13.396;2023-04-24T13:22:32;12.32;;;11.23;;
13421;SDS011;6782;55.904;13.396;2023-04-24T13:25:19;12.38;;;11.18;;
13421;SDS011;6782;55.904;13.396;2023-04-24T13:28:08;12.52;;;11.30;;
13421;SDS011;6782;55.904;13.396;2023-04-24T13:30:56;12.23;;;10.90;;
13421;SDS011;6782;55.904;13.396;2023-04-24T13:33:43;12.02;;;10.82;;
13421;SDS011;6782;55.904;13.396;2023-04-24T13:36:36;11.85;;;10.75;;
13421;SDS011;6782;55.904;13.396;2023-04-24T13:39:28;12.25;;;10.98;;
13421;SDS011;6782;55.904;13.396;2023-04-24T13:42:15;12.00;;;10.88;;
13421;SDS011;6782;55.904;13.396;2023-04-24T13:45:04;10.85;;;9.77;;
13421;SDS011;6782;55.904;13.396;2023-04-24T13:47:52;11.48;;;10.27;;
13421;SDS011;6782;55.904;13.396;2023-04-24T13:50:40;12.48;;;11.20;;
13421;SDS011;6782;55.904;13.396;2023-04-24T13:53:33;12.35;;;11.18;;
13421;SDS011;6782;55.904;13.396;2023-04-24T13:56:26;13.57;;;12.25;;
13421;SDS011;6782;55.904;13.396;2023-04-24T13:59:13;13.65;;;12.43;;
13421;SDS011;6782;55.904;13.396;2023-04-24T14:02:00;13.18;;;11.98;;
13421;SDS011;6782;55.904;13.396;2023-04-24T14:04:48;13.38;;;12.18;;
13421;SDS011;6782;55.904;13.396;2023-04-24T14:07:37;13.00;;;11.82;;
13421;SDS011;6782;55.904;13.396;2023-04-24T14:10:25;13.90;;;12.52;;
13421;SDS011;6782;55.904;13.396;2023-04-24T14:13:14;14.27;;;12.88;;
13421;SDS011;6782;55.904;13.396;2023-04-24T14:16:02;14.52;;;13.10;;
13421;SDS011;6782;55.904;13.396;2023-04-24T14:18:49;13.82;;;12.52;;
13421;SDS011;6782;55.904;13.396;2023-04-24T14:21:37;14.98;;;13.48;;
13421;SDS011;6782;55.904;13.396;2023-04-24T14:24:24;14.07;;;12.77;;
13421;SDS011;6782;55.904;13.396;2023-04-24T14:27:11;14.23;;;12.93;;
13421;SDS011;6782;55.904;13.396;2023-04-24T14:30:00;14.95;;;13.45;;
13421;SDS011;6782;55.904;13.396;2023-04-24T14:32:48;14.20;;;12.70;;
13421;SDS011;6782;55.904;13.396;2023-04-24T14:35:35;13.93;;;12.63;;
13421;SDS011;6782;55.904;13.396;2023-04-24T14:38:23;14.90;;;13.40;;
13421;SDS011;6782;55.904;13.396;2023-04-24T14:41:10;15.10;;;13.60;;
13421;SDS011;6782;55.904;13.396;2023-04-24T14:43:57;14.35;;;13.02;;
13421;SDS011;6782;55.904;13.396;2023-04-24T14:46:48;14.10;;;12.80;;
13421;SDS011;6782;55.904;13.396;2023-04-24T14:49:35;14.23;;;12.80;;
13421;SDS011;6782;55.904;13.396;2023-04-24T14:52:23;14.75;;;13.35;;
13421;SDS011;6782;55.904;13.396;2023-04-24T14:55:10;15.20;;;13.73;;
13421;SDS011;6782;55.904;13.396;2023-04-24T14:57:58;14.27;;;12.98;;
13421;SDS011;6782;55.904;13.396;2023-04-24T15:00:45;15.05;;;13.45;;
13421;SDS011;6782;55.904;13.396;2023-04-24T15:03:37;14.00;;;12.70;;
13421;SDS011;6782;55.904;13.396;2023-04-24T15:06:24;14.20;;;12.90;;
13421;SDS011;6782;55.904;13.396;2023-04-24T15:09:11;14.85;;;13.45;;
13421;SDS011;6782;55.904;13.396;2023-04-24T15:11:59;14.32;;;13.02;;
13421;SDS011;6782;55.904;13.396;2023-04-24T15:14:47;14.20;;;12.90;;
13421;SDS011;6782;55.904;13.396;2023-04-24T15:17:34;14.27;;;12.80;;
13421;SDS011;6782;55.904;13.396;2023-04-24T15:20:23;13.93;;;12.52;;
13421;SDS011;6782;55.904;13.396;2023-04-24T15:23:11;13.40;;;12.15;;
13421;SDS011;6782;55.904;13.396;2023-04-24T15:25:58;14.00;;;12.68;;
13421;SDS011;6782;55.904;13.396;2023-04-24T15:28:46;13.82;;;12.52;;
13421;SDS011;6782;55.904;13.396;2023-04-24T15:31:34;14.82;;;13.32;;
13421;SDS011;6782;55.904;13.396;2023-04-24T15:34:25;13.93;;;12.63;;
13421;SDS011;6782;55.904;13.396;2023-04-24T15:37:13;14.20;;;12.70;;
13421;SDS011;6782;55.904;13.396;2023-04-24T15:40:01;13.52;;;12.30;;
13421;SDS011;6782;55.904;13.396;2023-04-24T15:42:49;13.10;;;11.80;;
13421;SDS011;6782;55.904;13.396;2023-04-24T15:45:37;14.38;;;12.80;;
13421;SDS011;6782;55.904;13.396;2023-04-24T15:48:24;13.93;;;12.63;;
13421;SDS011;6782;55.904;13.396;2023-04-24T15:51:12;14.13;;;12.63;;
13421;SDS011;6782;55.904;13.396;2023-04-24T15:54:00;13.23;;;11.93;;
13421;SDS011;6782;55.904;13.396;2023-04-24T15:56:49;11.32;;;10.32;;
13421;SDS011;6782;55.904;13.396;2023-04-24T15:59:36;13.20;;;12.00;;
13421;SDS011;6782;55.904;13.396;2023-04-24T16:02:24;13.45;;;12.13;;
13421;SDS011;6782;55.904;13.396;2023-04-24T16:05:12;14.07;;;12.77;;
13421;SDS011;6782;55.904;13.396;2023-04-24T16:08:00;15.10;;;13.55;;
13421;SDS011;6782;55.904;13.396;2023-04-24T16:10:49;14.80;;;13.35;;
13421;SDS011;6782;55.904;13.396;2023-04-24T16:13:37;14.90;;;13.50;;
13421;SDS011;6782;55.904;13.396;2023-04-24T16:16:24;15.27;;;13.68;;
13421;SDS011;6782;55.904;13.396;2023-04-24T16:19:11;16.15;;;14.63;;
13421;SDS011;6782;55.904;13.396;2023-04-24T16:21:59;15.50;;;13.82;;
13421;SDS011;6782;55.904;13.396;2023-04-24T16:24:47;14.43;;;13.02;;
13421;SDS011;6782;55.904;13.396;2023-04-24T16:27:39;15.05;;;13.10;;
13421;SDS011;6782;55.904;13.396;2023-04-24T16:30:26;14.15;;;12.65;;
13421;SDS011;6782;55.904;13.396;2023-04-24T16:33:13;14.40;;;13.00;;
13421;SDS011;6782;55.904;13.396;2023-04-24T16:36:01;15.13;;;13.68;;
13421;SDS011;6782;55.904;13.396;2023-04-24T16:38:49;14.85;;;12.60;;
13421;SDS011;6782;55.904;13.396;2023-04-24T16:41:36;15.07;;;13.65;;
13421;SDS011;6782;55.904;13.396;2023-04-24T16:44:25;15.20;;;13.63;;
13421;SDS011;6782;55.904;13.396;2023-04-24T16:47:13;14.65;;;13.32;;
13421;SDS011;6782;55.904;13.396;2023-04-24T16:50:01;16.33;;;14.65;;
13421;SDS011;6782;55.904;13.396;2023-04-24T16:52:48;16.48;;;14.98;;
13421;SDS011;6782;55.904;13.396;2023-04-24T16:55:36;14.80;;;13.30;;
13421;SDS011;6782;55.904;13.396;2023-04-24T16:58:24;15.20;;;13.65;;
13421;SDS011;6782;55.904;13.396;2023-04-24T17:01:14;14.65;;;13.25;;
13421;SDS011;6782;55.904;13.396;2023-04-24T17:04:01;15.07;;;13.68;;
13421;SDS011;6782;55.904;13.396;2023-04-24T17:06:48;16.23;;;14.52;;
13421;SDS011;6782;55.904;13.396;2023-04-24T17:09:36;16.00;;;14.40;;
13421;SDS011;6782;55.904;13.396;2023-04-24T17:12:24;15.77;;;14.18;;
13421;SDS011;6782;55.904;13.396;2023-04-24T17:15:12;16.65;;;15.05;;
13421;SDS011;6782;55.904;13.396;2023-04-24T17:18:01;16.17;;;14.52;;
13421;SDS011;6782;55.904;13.396;2023-04-24T17:20:50;15.95;;;14.45;;
13421;SDS011;6782;55.904;13.396;2023-04-24T17:23:37;15.43;;;13.93;;
13421;SDS011;6782;55.904;13.396;2023-04-24T17:26:24;13.13;;;11.83;;
13421;SDS011;6782;55.904;13.396;2023-04-24T17:29:12;12.33;;;11.13;;
13421;SDS011;6782;55.904;13.396;2023-04-24T17:31:59;12.43;;;11.23;;
13421;SDS011;6782;55.904;13.396;2023-04-24T17:34:48;12.43;;;11.23;;
13421;SDS011;6782;55.904;13.396;2023-04-24T17:37:35;13.40;;;12.07;;
13421;SDS011;6782;55.904;13.396;2023-04-24T17:40:22;12.90;;;11.70;;
13421;SDS011;6782;55.904;13.396;2023-04-24T17:43:10;14.57;;;13.07;;
13421;SDS011;6782;55.904;13.396;2023-04-24T17:45:57;14.93;;;13.23;;
13421;SDS011;6782;55.904;13.396;2023-04-24T17:48:45;14.17;;;12.83;;
13421;SDS011;6782;55.904;13.396;2023-04-24T17:51:34;16.73;;;15.03;;
13421;SDS011;6782;55.904;13.396;2023-04-24T17:54:21;15.93;;;14.43;;
13421;SDS011;6782;55.904;13.396;2023-04-24T17:57:09;15.60;;;14.10;;
13421;SDS011;6782;55.904;13.396;2023-04-24T17:59:56;15.10;;;13.57;;
13421;SDS011;6782;55.904;13.396;2023-04-24T18:02:43;15.30;;;13.80;;
13421;SDS011;6782;55.904;13.396;2023-04-24T18:05:30;16.13;;;14.53;;
13421;SDS011;6782;55.904;13.396;2023-04-24T18:08:21;17.23;;;15.63;;
13421;SDS011;6782;55.904;13.396;2023-04-24T18:11:08;18.00;;;16.20;;
13421;SDS011;6782;55.904;13.396;2023-04-24T18:13:56;17.20;;;15.40;;
13421;SDS011;6782;55.904;13.396;2023-04-24T18:16:43;18.67;;;16.40;;
13421;SDS011;6782;55.904;13.396;2023-04-24T18:19:30;19.20;;;17.37;;